createdAt,value
2022-11-27T00:00:17.524Z,5.50
2022-11-27T00:01:17.505Z,5.47
2022-11-27T00:02:17.540Z,5.46
2022-11-27T00:03:17.651Z,5.44
2022-11-27T00:04:17.576Z,5.39
2022-11-27T00:05:17.470Z,5.38
2022-11-27T00:06:17.501Z,5.32
2022-11-27T00:07:17.479Z,5.30
2022-11-27T00:08:17.464Z,5.25
2022-11-27T00:09:17.441Z,5.21
2022-11-27T00:10:17.415Z,5.17
2022-11-27T00:11:17.394Z,5.12
2022-11-27T00:12:17.386Z,5.08
2022-11-27T00:13:17.405Z,5.04
2022-11-27T00:14:17.427Z,5.00
2022-11-27T00:15:17.565Z,4.96
2022-11-27T00:16:17.421Z,4.93
2022-11-27T00:17:17.333Z,4.89
2022-11-27T00:18:17.325Z,4.86
2022-11-27T00:19:17.316Z,4.80
2022-11-27T00:20:17.329Z,4.75
2022-11-27T00:21:17.292Z,4.73
2022-11-27T00:22:17.280Z,4.70
2022-11-27T00:23:17.283Z,4.67
2022-11-27T00:24:17.241Z,4.62
2022-11-27T00:25:17.343Z,4.60
2022-11-27T00:26:17.241Z,4.58
2022-11-27T00:27:17.237Z,4.52
2022-11-27T00:28:17.213Z,4.48
2022-11-27T00:29:17.213Z,4.48
2022-11-27T00:30:17.193Z,4.41
2022-11-27T00:31:17.354Z,4.40
2022-11-27T00:32:17.164Z,4.38
2022-11-27T00:33:17.170Z,4.34
2022-11-27T00:34:17.141Z,4.32
2022-11-27T00:35:17.153Z,4.28
2022-11-27T00:36:17.143Z,4.26
2022-11-27T00:37:17.124Z,4.24
2022-11-27T00:38:17.081Z,4.20
2022-11-27T00:39:17.092Z,4.17
2022-11-27T00:40:17.072Z,4.14
2022-11-27T00:41:17.075Z,4.13
2022-11-27T00:42:17.082Z,4.12
2022-11-27T00:43:17.065Z,4.08
2022-11-27T00:44:17.022Z,4.05
2022-11-27T00:45:17.025Z,4.02
2022-11-27T00:46:17.088Z,3.99
2022-11-27T00:47:17.017Z,3.99
2022-11-27T00:48:16.973Z,3.96
2022-11-27T00:49:16.973Z,3.94
2022-11-27T00:50:17.002Z,3.92
2022-11-27T00:51:16.961Z,3.92
2022-11-27T00:52:16.941Z,3.91
2022-11-27T00:53:16.941Z,3.88
2022-11-27T00:54:16.917Z,3.87
2022-11-27T00:55:16.914Z,3.87
2022-11-27T00:56:16.902Z,3.86
2022-11-27T00:57:16.921Z,3.84
2022-11-27T00:58:16.871Z,3.81
2022-11-27T00:59:16.896Z,3.80
2022-11-27T01:00:16.859Z,3.80
2022-11-27T01:01:16.869Z,3.78
2022-11-27T01:02:16.925Z,3.74
2022-11-27T01:03:16.952Z,3.74
2022-11-27T01:04:16.810Z,3.70
2022-11-27T01:05:16.814Z,3.69
2022-11-27T01:06:16.781Z,3.66
2022-11-27T01:07:16.827Z,3.68
2022-11-27T01:08:16.773Z,3.66
2022-11-27T01:09:16.773Z,3.62
2022-11-27T01:10:16.736Z,3.63
2022-11-27T01:11:16.747Z,3.62
2022-11-27T01:12:16.716Z,3.58
2022-11-27T01:13:16.734Z,3.59
2022-11-27T01:14:16.707Z,3.56
2022-11-27T01:15:16.693Z,3.56
2022-11-27T01:16:16.733Z,3.55
2022-11-27T01:17:16.675Z,3.53
2022-11-27T01:18:16.646Z,3.51
2022-11-27T01:19:16.661Z,3.51
2022-11-27T01:20:16.630Z,3.51
2022-11-27T01:21:16.636Z,3.50
2022-11-27T01:22:16.622Z,3.48
2022-11-27T01:23:16.593Z,3.47
2022-11-27T01:24:16.593Z,3.45
2022-11-27T01:25:16.582Z,3.42
2022-11-27T01:26:16.570Z,3.44
2022-11-27T01:27:16.552Z,3.41
2022-11-27T01:28:16.542Z,3.40
2022-11-27T01:29:16.542Z,3.36
2022-11-27T01:30:16.523Z,3.32
2022-11-27T01:31:16.631Z,3.34
2022-11-27T01:32:16.530Z,3.31
2022-11-27T01:33:16.484Z,3.29
2022-11-27T01:34:16.470Z,3.29
2022-11-27T01:35:16.489Z,3.26
2022-11-27T01:36:16.431Z,3.23
2022-11-27T01:37:16.442Z,3.22
2022-11-27T01:38:16.434Z,3.21
2022-11-27T01:39:16.428Z,3.19
2022-11-27T01:40:16.429Z,3.18
2022-11-27T01:41:16.391Z,3.14
2022-11-27T01:42:16.391Z,3.16
2022-11-27T01:43:16.370Z,3.13
2022-11-27T01:44:16.354Z,3.11
2022-11-27T01:45:16.363Z,3.10
2022-11-27T01:46:16.385Z,3.08
2022-11-27T01:47:16.357Z,3.07
2022-11-27T01:48:16.299Z,3.04
2022-11-27T01:49:16.311Z,3.05
2022-11-27T01:50:16.304Z,3.04
2022-11-27T01:51:16.543Z,3.04
2022-11-27T01:52:16.282Z,3.01
2022-11-27T01:53:16.263Z,3.00
2022-11-27T01:54:16.255Z,3.00
2022-11-27T01:55:16.231Z,2.98
2022-11-27T01:56:16.231Z,2.98
2022-11-27T01:57:16.231Z,2.95
2022-11-27T01:58:16.210Z,2.95
2022-11-27T01:59:16.211Z,2.97
2022-11-27T02:00:16.181Z,2.97
2022-11-27T02:01:16.289Z,2.97
2022-11-27T02:02:16.267Z,2.98
2022-11-27T02:03:16.307Z,2.97
2022-11-27T02:04:16.152Z,2.97
2022-11-27T02:05:16.131Z,2.93
2022-11-27T02:06:16.113Z,2.93
2022-11-27T02:07:16.193Z,2.92
2022-11-27T02:08:16.101Z,2.92
2022-11-27T02:09:16.071Z,2.90
2022-11-27T02:10:16.079Z,2.90
2022-11-27T02:11:16.079Z,2.87
2022-11-27T02:12:16.051Z,2.86
2022-11-27T02:13:16.043Z,2.83
2022-11-27T02:14:16.012Z,2.82
2022-11-27T02:15:16.021Z,2.85
2022-11-27T02:16:18.165Z,2.82
2022-11-27T02:17:16.012Z,2.80
2022-11-27T02:18:15.959Z,2.80
2022-11-27T02:19:15.975Z,2.79
2022-11-27T02:20:15.960Z,2.80
2022-11-27T02:21:15.971Z,2.79
2022-11-27T02:22:15.927Z,2.77
2022-11-27T02:23:15.951Z,2.77
2022-11-27T02:24:15.915Z,2.75
2022-11-27T02:25:15.900Z,2.74
2022-11-27T02:26:15.910Z,2.71
2022-11-27T02:27:15.897Z,2.71
2022-11-27T02:28:15.859Z,2.71
2022-11-27T02:29:15.883Z,2.69
2022-11-27T02:30:15.848Z,2.68
2022-11-27T02:31:15.899Z,2.65
2022-11-27T02:32:15.832Z,2.64
2022-11-27T02:33:15.847Z,2.64
2022-11-27T02:34:15.791Z,2.62
2022-11-27T02:35:15.828Z,2.61
2022-11-27T02:36:15.779Z,2.60
2022-11-27T02:37:15.779Z,2.57
2022-11-27T02:38:15.802Z,2.57
2022-11-27T02:39:15.751Z,2.56
2022-11-27T02:40:15.732Z,2.56
2022-11-27T02:41:15.752Z,2.56
2022-11-27T02:42:15.743Z,2.53
2022-11-27T02:43:15.711Z,2.49
2022-11-27T02:44:15.720Z,2.50
2022-11-27T02:45:15.852Z,2.47
2022-11-27T02:46:15.703Z,2.46
2022-11-27T02:47:15.660Z,2.46
2022-11-27T02:48:15.629Z,2.44
2022-11-27T02:49:15.643Z,2.46
2022-11-27T02:50:15.640Z,2.44
2022-11-27T02:51:15.627Z,2.44
2022-11-27T02:52:15.599Z,2.43
2022-11-27T02:53:15.588Z,2.43
2022-11-27T02:54:15.601Z,2.39
2022-11-27T02:55:15.579Z,2.39
2022-11-27T02:56:15.549Z,2.38
2022-11-27T02:57:15.567Z,2.36
2022-11-27T02:58:15.532Z,2.33
2022-11-27T02:59:15.544Z,2.33
2022-11-27T03:00:15.533Z,2.32
2022-11-27T03:01:15.639Z,2.31
2022-11-27T03:02:15.574Z,2.31
2022-11-27T03:03:15.568Z,2.31
2022-11-27T03:04:15.493Z,2.31
2022-11-27T03:05:15.483Z,2.29
2022-11-27T03:06:15.463Z,2.29
2022-11-27T03:07:15.515Z,2.28
2022-11-27T03:08:15.434Z,2.29
2022-11-27T03:09:15.428Z,2.29
2022-11-27T03:10:15.406Z,2.29
2022-11-27T03:11:15.410Z,2.29
2022-11-27T03:12:15.389Z,2.32
2022-11-27T03:13:15.492Z,2.31
2022-11-27T03:14:15.360Z,2.29
2022-11-27T03:15:15.348Z,2.32
2022-11-27T03:16:15.410Z,2.29
2022-11-27T03:17:15.349Z,2.31
2022-11-27T03:18:15.329Z,2.28
2022-11-27T03:19:15.329Z,2.29
2022-11-27T03:20:15.297Z,2.29
2022-11-27T03:21:15.288Z,2.29
2022-11-27T03:22:15.288Z,2.29
2022-11-27T03:23:15.269Z,2.29
2022-11-27T03:24:15.237Z,2.28
2022-11-27T03:25:15.240Z,2.26
2022-11-27T03:26:15.228Z,2.28
2022-11-27T03:27:15.248Z,2.26
2022-11-27T03:28:15.217Z,2.26
2022-11-27T03:29:15.200Z,2.25
2022-11-27T03:30:15.188Z,2.24
2022-11-27T03:31:15.249Z,2.24
2022-11-27T03:32:15.161Z,2.22
2022-11-27T03:33:15.177Z,2.22
2022-11-27T03:34:15.150Z,2.22
2022-11-27T03:35:15.149Z,2.22
2022-11-27T03:36:15.117Z,2.20
2022-11-27T03:37:15.117Z,2.20
2022-11-27T03:38:15.125Z,2.20
2022-11-27T03:39:15.100Z,2.20
2022-11-27T03:40:15.091Z,2.17
2022-11-27T03:41:15.077Z,2.17
2022-11-27T03:42:15.049Z,2.17
2022-11-27T03:43:15.061Z,2.14
2022-11-27T03:44:15.042Z,2.13
2022-11-27T03:45:15.030Z,2.13
2022-11-27T03:46:15.092Z,2.13
2022-11-27T03:47:15.067Z,2.13
2022-11-27T03:48:14.997Z,2.10
2022-11-27T03:49:14.985Z,2.13
2022-11-27T03:50:14.973Z,2.10
2022-11-27T03:51:14.965Z,2.11
2022-11-27T03:52:14.946Z,2.13
2022-11-27T03:53:14.958Z,2.11
2022-11-27T03:54:14.925Z,2.11
2022-11-27T03:55:14.918Z,2.11
2022-11-27T03:56:14.897Z,2.10
2022-11-27T03:57:14.910Z,2.10
2022-11-27T03:58:14.897Z,2.08
2022-11-27T03:59:14.895Z,2.07
2022-11-27T04:00:14.879Z,2.07
2022-11-27T04:01:14.882Z,2.07
2022-11-27T04:02:14.919Z,2.06
2022-11-27T04:03:14.837Z,2.06
2022-11-27T04:04:14.912Z,2.04
2022-11-27T04:05:14.818Z,2.04
2022-11-27T04:06:14.807Z,2.04
2022-11-27T04:07:14.825Z,2.02
2022-11-27T04:08:14.786Z,2.04
2022-11-27T04:09:14.790Z,2.04
2022-11-27T04:10:14.758Z,2.04
2022-11-27T04:11:14.741Z,2.04
2022-11-27T04:12:14.730Z,2.02
2022-11-27T04:13:14.758Z,2.00
2022-11-27T04:14:14.718Z,1.97
2022-11-27T04:15:14.707Z,1.97
2022-11-27T04:16:14.724Z,1.95
2022-11-27T04:17:14.686Z,1.94
2022-11-27T04:18:14.666Z,1.91
2022-11-27T04:19:14.667Z,1.89
2022-11-27T04:20:14.674Z,1.88
2022-11-27T04:21:14.638Z,1.88
2022-11-27T04:22:14.608Z,1.85
2022-11-27T04:23:14.617Z,1.84
2022-11-27T04:24:14.598Z,1.84
2022-11-27T04:25:14.591Z,1.84
2022-11-27T04:26:14.594Z,1.80
2022-11-27T04:27:14.574Z,1.80
2022-11-27T04:28:14.546Z,1.78
2022-11-27T04:29:14.567Z,1.76
2022-11-27T04:30:14.534Z,1.74
2022-11-27T04:31:14.619Z,1.73
2022-11-27T04:32:14.495Z,1.71
2022-11-27T04:33:14.499Z,1.68
2022-11-27T04:34:14.486Z,1.67
2022-11-27T04:35:14.483Z,1.66
2022-11-27T04:36:14.495Z,1.66
2022-11-27T04:37:14.442Z,1.63
2022-11-27T04:38:14.445Z,1.62
2022-11-27T04:39:14.418Z,1.63
2022-11-27T04:40:14.457Z,1.62
2022-11-27T04:41:14.444Z,1.60
2022-11-27T04:42:14.399Z,1.62
2022-11-27T04:43:14.410Z,1.60
2022-11-27T04:44:14.389Z,1.60
2022-11-27T04:45:14.375Z,1.60
2022-11-27T04:46:14.436Z,1.60
2022-11-27T04:47:14.333Z,1.60
2022-11-27T04:48:14.358Z,1.59
2022-11-27T04:49:14.355Z,1.58
2022-11-27T04:50:14.314Z,1.58
2022-11-27T04:51:14.303Z,1.56
2022-11-27T04:52:14.330Z,1.56
2022-11-27T04:53:14.284Z,1.55
2022-11-27T04:54:14.262Z,1.53
2022-11-27T04:55:14.267Z,1.53
2022-11-27T04:56:14.250Z,1.52
2022-11-27T04:57:14.243Z,1.53
2022-11-27T04:58:14.222Z,1.53
2022-11-27T04:59:14.229Z,1.53
2022-11-27T05:00:14.215Z,1.53
2022-11-27T05:01:14.273Z,1.55
2022-11-27T05:02:14.187Z,1.56
2022-11-27T05:03:14.309Z,1.58
2022-11-27T05:04:14.166Z,1.59
2022-11-27T05:05:14.144Z,1.58
2022-11-27T05:06:14.137Z,1.59
2022-11-27T05:07:14.151Z,1.59
2022-11-27T05:08:14.127Z,1.60
2022-11-27T05:09:14.124Z,1.59
2022-11-27T05:10:14.104Z,1.59
2022-11-27T05:11:14.065Z,1.59
2022-11-27T05:12:14.095Z,1.59
2022-11-27T05:13:14.054Z,1.59
2022-11-27T05:14:14.054Z,1.58
2022-11-27T05:15:14.029Z,1.58
2022-11-27T05:16:14.111Z,1.58
2022-11-27T05:17:14.007Z,1.58
2022-11-27T05:18:14.036Z,1.59
2022-11-27T05:19:14.002Z,1.58
2022-11-27T05:20:14.003Z,1.60
2022-11-27T05:21:13.956Z,1.59
2022-11-27T05:22:13.982Z,1.60
2022-11-27T05:23:13.951Z,1.59
2022-11-27T05:24:13.943Z,1.58
2022-11-27T05:25:13.922Z,1.59
2022-11-27T05:26:13.934Z,1.62
2022-11-27T05:27:13.897Z,1.59
2022-11-27T05:28:13.903Z,1.59
2022-11-27T05:29:13.871Z,1.59
2022-11-27T05:30:13.871Z,1.59
2022-11-27T05:31:13.926Z,1.58
2022-11-27T05:32:13.850Z,1.60
2022-11-27T05:33:13.835Z,1.62
2022-11-27T05:34:14.106Z,1.62
2022-11-27T05:35:13.855Z,1.60
2022-11-27T05:36:13.803Z,1.62
2022-11-27T05:37:19.109Z,1.62
2022-11-27T05:38:14.806Z,1.62
2022-11-27T05:39:13.764Z,1.63
2022-11-27T05:40:13.770Z,1.63
2022-11-27T05:41:13.736Z,1.66
2022-11-27T05:42:13.760Z,1.62
2022-11-27T05:43:13.723Z,1.63
2022-11-27T05:44:13.713Z,1.66
2022-11-27T05:45:13.717Z,1.66
2022-11-27T05:46:13.746Z,1.66
2022-11-27T05:47:13.681Z,1.68
2022-11-27T05:48:13.672Z,1.71
2022-11-27T05:49:13.655Z,1.71
2022-11-27T05:50:13.651Z,1.74
2022-11-27T05:51:13.641Z,1.76
2022-11-27T05:52:13.627Z,1.76
2022-11-27T05:53:13.612Z,1.77
2022-11-27T05:54:13.605Z,1.80
2022-11-27T05:55:13.580Z,1.80
2022-11-27T05:56:13.659Z,1.84
2022-11-27T05:57:13.580Z,1.87
2022-11-27T05:58:13.566Z,1.88
2022-11-27T05:59:13.541Z,1.89
2022-11-27T06:00:13.541Z,1.89
2022-11-27T06:01:13.523Z,1.92
2022-11-27T06:02:19.975Z,1.91
2022-11-27T06:03:14.587Z,1.91
2022-11-27T06:04:13.519Z,1.92
2022-11-27T06:05:13.480Z,1.92
2022-11-27T06:06:13.480Z,1.92
2022-11-27T06:07:13.526Z,1.94
2022-11-27T06:08:13.452Z,1.95
2022-11-27T06:09:13.804Z,1.94
2022-11-27T06:10:13.447Z,1.95
2022-11-27T06:11:13.399Z,1.95
2022-11-27T06:12:13.400Z,1.92
2022-11-27T06:13:13.395Z,1.94
2022-11-27T06:14:13.412Z,1.94
2022-11-27T06:15:13.372Z,1.92
2022-11-27T06:16:13.499Z,1.91
2022-11-27T06:17:13.352Z,1.91
2022-11-27T06:18:13.340Z,1.92
2022-11-27T06:19:13.320Z,1.92
2022-11-27T06:20:13.312Z,1.92
2022-11-27T06:21:13.364Z,1.91
2022-11-27T06:22:13.322Z,1.91
2022-11-27T06:23:13.308Z,1.89
2022-11-27T06:24:13.285Z,1.91
2022-11-27T06:25:13.261Z,1.88
2022-11-27T06:26:13.260Z,1.87
2022-11-27T06:27:13.260Z,1.84
2022-11-27T06:28:13.250Z,1.81
2022-11-27T06:29:13.208Z,1.80
2022-11-27T06:30:13.200Z,1.78
2022-11-27T06:31:17.426Z,1.77
2022-11-27T06:32:14.255Z,1.76
2022-11-27T06:33:13.168Z,1.74
2022-11-27T06:34:13.164Z,1.73
2022-11-27T06:35:13.149Z,1.71
2022-11-27T06:36:13.148Z,1.70
2022-11-27T06:37:13.642Z,1.68
2022-11-27T06:38:13.162Z,1.67
2022-11-27T06:39:13.120Z,1.67
2022-11-27T06:40:13.109Z,1.67
2022-11-27T06:41:13.100Z,1.67
2022-11-27T06:42:13.076Z,1.66
2022-11-27T06:43:13.080Z,1.67
2022-11-27T06:44:13.070Z,1.67
2022-11-27T06:45:13.165Z,1.67
2022-11-27T06:46:13.097Z,1.66
2022-11-27T06:47:13.020Z,1.66
2022-11-27T06:48:13.041Z,1.68
2022-11-27T06:49:13.010Z,1.67
2022-11-27T06:50:13.001Z,1.67
2022-11-27T06:51:12.978Z,1.67
2022-11-27T06:52:12.976Z,1.68
2022-11-27T06:53:12.980Z,1.68
2022-11-27T06:54:13.023Z,1.68
2022-11-27T06:55:12.958Z,1.68
2022-11-27T06:56:12.917Z,1.70
2022-11-27T06:57:12.898Z,1.70
2022-11-27T06:58:12.917Z,1.68
2022-11-27T06:59:12.906Z,1.68
2022-11-27T07:00:12.909Z,1.70
2022-11-27T07:01:12.925Z,1.70
2022-11-27T07:02:13.015Z,1.71
2022-11-27T07:03:12.845Z,1.70
2022-11-27T07:04:12.829Z,1.71
2022-11-27T07:05:12.845Z,1.70
2022-11-27T07:06:12.817Z,1.71
2022-11-27T07:07:12.839Z,1.71
2022-11-27T07:08:12.796Z,1.71
2022-11-27T07:09:12.765Z,1.71
2022-11-27T07:10:12.802Z,1.73
2022-11-27T07:11:12.777Z,1.74
2022-11-27T07:12:12.757Z,1.74
2022-11-27T07:13:12.729Z,1.76
2022-11-27T07:14:12.732Z,1.77
2022-11-27T07:15:12.738Z,1.78
2022-11-27T07:16:12.780Z,1.77
2022-11-27T07:17:12.686Z,1.80
2022-11-27T07:18:12.709Z,1.81
2022-11-27T07:19:12.666Z,1.80
2022-11-27T07:20:12.678Z,1.84
2022-11-27T07:21:12.691Z,1.84
2022-11-27T07:22:12.645Z,1.87
2022-11-27T07:23:12.626Z,1.87
2022-11-27T07:24:12.625Z,1.87
2022-11-27T07:25:12.706Z,1.88
2022-11-27T07:26:12.592Z,1.89
2022-11-27T07:27:12.580Z,1.91
2022-11-27T07:28:17.409Z,1.92
2022-11-27T07:29:13.546Z,1.94
2022-11-27T07:30:12.553Z,1.95
2022-11-27T07:31:12.627Z,1.97
2022-11-27T07:32:12.525Z,1.99
2022-11-27T07:33:12.518Z,1.99
2022-11-27T07:34:17.115Z,2.02
2022-11-27T07:35:13.519Z,2.06
2022-11-27T07:36:12.507Z,2.08
2022-11-27T07:37:12.469Z,2.08
2022-11-27T07:38:12.467Z,2.11
2022-11-27T07:39:12.456Z,2.14
2022-11-27T07:40:13.866Z,2.15
2022-11-27T07:41:12.449Z,2.17
2022-11-27T07:42:37.076Z,2.22
2022-11-27T07:43:13.413Z,2.24
2022-11-27T07:44:12.417Z,2.25
2022-11-27T07:45:12.391Z,2.29
2022-11-27T07:46:12.455Z,2.31
2022-11-27T07:47:12.395Z,2.35
2022-11-27T07:48:12.355Z,2.36
2022-11-27T07:49:12.347Z,2.42
2022-11-27T07:50:12.338Z,2.46
2022-11-27T07:51:12.323Z,2.49
2022-11-27T07:52:12.306Z,2.53
2022-11-27T07:53:12.317Z,2.56
2022-11-27T07:54:12.286Z,2.60
2022-11-27T07:55:12.514Z,2.65
2022-11-27T07:56:12.286Z,2.67
2022-11-27T07:57:12.248Z,2.69
2022-11-27T07:58:12.274Z,2.74
2022-11-27T07:59:12.226Z,2.77
2022-11-27T08:00:12.260Z,2.82
2022-11-27T08:01:12.235Z,2.86
2022-11-27T08:02:12.205Z,2.89
2022-11-27T08:03:12.211Z,2.92
2022-11-27T08:04:12.239Z,2.97
2022-11-27T08:05:13.222Z,2.98
2022-11-27T08:06:12.166Z,3.01
2022-11-27T08:07:12.203Z,3.05
2022-11-27T08:08:12.134Z,3.08
2022-11-27T08:09:12.137Z,3.11
2022-11-27T08:10:12.126Z,3.16
2022-11-27T08:11:12.094Z,3.19
2022-11-27T08:12:12.094Z,3.23
2022-11-27T08:13:12.088Z,3.25
2022-11-27T08:14:12.085Z,3.28
2022-11-27T08:15:12.254Z,3.31
2022-11-27T08:16:12.096Z,3.32
2022-11-27T08:17:12.026Z,3.34
2022-11-27T08:18:12.043Z,3.37
2022-11-27T08:19:12.046Z,3.40
2022-11-27T08:20:12.026Z,3.40
2022-11-27T08:21:11.992Z,3.44
2022-11-27T08:22:11.975Z,3.44
2022-11-27T08:23:11.975Z,3.47
2022-11-27T08:24:11.968Z,3.50
2022-11-27T08:25:11.947Z,3.51
2022-11-27T08:26:11.949Z,3.53
2022-11-27T08:27:11.923Z,3.58
2022-11-27T08:28:11.923Z,3.58
2022-11-27T08:29:11.919Z,3.62
2022-11-27T08:30:11.896Z,3.65
2022-11-27T08:31:11.958Z,3.66
2022-11-27T08:32:11.952Z,3.68
2022-11-27T08:33:11.860Z,3.73
2022-11-27T08:34:11.863Z,3.73
2022-11-27T08:35:11.827Z,3.76
2022-11-27T08:36:17.635Z,3.78
2022-11-27T08:37:12.803Z,3.80
2022-11-27T08:38:11.805Z,3.83
2022-11-27T08:39:11.815Z,3.83
2022-11-27T08:40:11.782Z,3.83
2022-11-27T08:41:11.758Z,3.83
2022-11-27T08:42:11.766Z,3.84
2022-11-27T08:43:11.735Z,3.88
2022-11-27T08:44:11.742Z,3.91
2022-11-27T08:45:11.735Z,3.92
2022-11-27T08:46:11.761Z,3.95
2022-11-27T08:47:11.696Z,3.96
2022-11-27T08:48:11.685Z,4.02
2022-11-27T08:49:11.675Z,4.04
2022-11-27T08:50:11.655Z,4.08
2022-11-27T08:51:11.675Z,4.12
2022-11-27T08:52:11.647Z,4.14
2022-11-27T08:53:11.635Z,4.17
2022-11-27T08:54:11.623Z,4.22
2022-11-27T08:55:11.615Z,4.24
2022-11-27T08:56:11.636Z,4.26
2022-11-27T08:57:11.591Z,4.28
2022-11-27T08:58:11.571Z,4.32
2022-11-27T08:59:11.584Z,4.34
2022-11-27T09:00:11.575Z,4.37
2022-11-27T09:01:11.625Z,4.40
2022-11-27T09:02:11.526Z,4.41
2022-11-27T09:03:11.516Z,4.44
2022-11-27T09:04:11.526Z,4.45
2022-11-27T09:05:11.503Z,4.49
2022-11-27T09:06:11.506Z,4.53
2022-11-27T09:07:11.504Z,4.55
2022-11-27T09:08:11.457Z,4.58
2022-11-27T09:09:11.456Z,4.59
2022-11-27T09:10:11.453Z,4.66
2022-11-27T09:11:11.433Z,4.67
2022-11-27T09:12:11.443Z,4.70
2022-11-27T09:13:11.411Z,4.73
2022-11-27T09:14:11.384Z,4.75
2022-11-27T09:15:11.435Z,4.77
2022-11-27T09:16:11.436Z,4.82
2022-11-27T09:17:11.371Z,4.82
2022-11-27T09:18:11.342Z,4.86
2022-11-27T09:19:11.348Z,4.89
2022-11-27T09:20:11.345Z,4.92
2022-11-27T09:21:11.325Z,4.96
2022-11-27T09:22:11.291Z,5.00
2022-11-27T09:23:14.377Z,5.05
2022-11-27T09:24:11.280Z,5.10
2022-11-27T09:25:11.296Z,5.12
2022-11-27T09:26:11.272Z,5.20
2022-11-27T09:27:11.252Z,5.23
2022-11-27T09:28:11.244Z,5.28
2022-11-27T09:29:11.244Z,5.33
2022-11-27T09:30:11.220Z,5.41
2022-11-27T09:31:11.224Z,5.50
2022-11-27T09:32:11.274Z,5.57
2022-11-27T09:33:11.193Z,5.68
2022-11-27T09:34:11.169Z,5.76
2022-11-27T09:35:11.231Z,5.89
2022-11-27T09:36:11.160Z,5.99
2022-11-27T09:37:11.132Z,6.09
2022-11-27T09:38:11.129Z,6.26
2022-11-27T09:39:11.112Z,6.38
2022-11-27T09:40:11.100Z,6.49
2022-11-27T09:41:11.113Z,6.59
2022-11-27T09:42:11.080Z,6.69
2022-11-27T09:43:11.084Z,6.78
2022-11-27T09:44:11.092Z,6.87
2022-11-27T09:45:11.052Z,6.93
2022-11-27T09:46:11.083Z,6.99
2022-11-27T09:47:11.021Z,7.03
2022-11-27T09:48:11.000Z,7.06
2022-11-27T09:49:11.012Z,7.07
2022-11-27T09:50:10.993Z,7.10
2022-11-27T09:51:11.012Z,7.11
2022-11-27T09:52:10.983Z,7.07
2022-11-27T09:53:10.952Z,7.06
2022-11-27T09:54:10.945Z,7.07
2022-11-27T09:55:10.932Z,7.10
2022-11-27T09:56:10.913Z,7.10
2022-11-27T09:57:10.933Z,7.10
2022-11-27T09:58:10.912Z,7.07
2022-11-27T09:59:10.892Z,7.07
2022-11-27T10:00:10.881Z,7.06
2022-11-27T10:01:10.900Z,7.06
2022-11-27T10:02:11.020Z,7.06
2022-11-27T10:03:10.933Z,7.05
2022-11-27T10:04:10.844Z,7.05
2022-11-27T10:05:14.589Z,7.05
2022-11-27T10:06:10.842Z,7.07
2022-11-27T10:07:10.830Z,7.06
2022-11-27T10:08:10.873Z,7.10
2022-11-27T10:09:10.781Z,7.07
2022-11-27T10:10:10.764Z,7.10
2022-11-27T10:11:10.781Z,7.11
2022-11-27T10:12:10.763Z,7.14
2022-11-27T10:13:10.804Z,7.13
2022-11-27T10:14:10.712Z,7.13
2022-11-27T10:15:10.720Z,7.14
2022-11-27T10:16:10.787Z,7.13
2022-11-27T10:17:10.751Z,7.15
2022-11-27T10:18:10.693Z,7.14
2022-11-27T10:19:10.687Z,7.15
2022-11-27T10:20:10.665Z,7.15
2022-11-27T10:21:10.645Z,7.17
2022-11-27T10:22:10.654Z,7.15
2022-11-27T10:23:10.625Z,7.15
2022-11-27T10:24:10.645Z,7.17
2022-11-27T10:25:10.616Z,7.18
2022-11-27T10:26:10.587Z,7.18
2022-11-27T10:27:10.581Z,7.23
2022-11-27T10:28:10.843Z,7.21
2022-11-27T10:29:10.588Z,7.20
2022-11-27T10:30:10.538Z,7.21
2022-11-27T10:31:10.535Z,7.21
2022-11-27T10:32:26.685Z,7.23
2022-11-27T10:33:11.533Z,7.24
2022-11-27T10:34:10.515Z,7.24
2022-11-27T10:35:10.501Z,7.25
2022-11-27T10:36:10.481Z,7.24
2022-11-27T10:37:10.473Z,7.28
2022-11-27T10:38:10.441Z,7.25
2022-11-27T10:39:10.441Z,7.28
2022-11-27T10:40:10.460Z,7.29
2022-11-27T10:41:18.568Z,7.31
2022-11-27T10:42:11.423Z,7.31
2022-11-27T10:43:10.402Z,7.32
2022-11-27T10:44:10.481Z,7.32
2022-11-27T10:45:10.374Z,7.32
2022-11-27T10:46:10.409Z,7.32
2022-11-27T10:47:10.381Z,7.32
2022-11-27T10:48:10.342Z,7.32
2022-11-27T10:49:10.345Z,7.33
2022-11-27T10:50:10.328Z,7.35
2022-11-27T10:51:10.322Z,7.36
2022-11-27T10:52:10.316Z,7.36
2022-11-27T10:53:10.293Z,7.38
2022-11-27T10:54:10.285Z,7.38
2022-11-27T10:55:10.266Z,7.40
2022-11-27T10:56:10.289Z,7.40
2022-11-27T10:57:10.254Z,7.40
2022-11-27T10:58:10.221Z,7.40
2022-11-27T10:59:10.223Z,7.42
2022-11-27T11:00:10.225Z,7.42
2022-11-27T11:01:10.241Z,7.43
2022-11-27T11:02:10.288Z,7.45
2022-11-27T11:03:10.194Z,7.47
2022-11-27T11:04:35.840Z,7.45
2022-11-27T11:05:32.879Z,7.47
2022-11-27T11:06:20.674Z,7.48
2022-11-27T11:07:11.165Z,7.48
2022-11-27T11:08:10.114Z,7.48
2022-11-27T11:09:10.114Z,7.48
2022-11-27T11:10:10.158Z,7.47
2022-11-27T11:11:10.121Z,7.47
2022-11-27T11:12:10.062Z,7.45
2022-11-27T11:13:10.062Z,7.45
2022-11-27T11:14:10.046Z,7.45
2022-11-27T11:15:10.047Z,7.47
2022-11-27T11:16:14.479Z,7.47
2022-11-27T11:17:11.128Z,7.48
2022-11-27T11:18:10.015Z,7.48
2022-11-27T11:19:09.995Z,7.48
2022-11-27T11:20:10.002Z,7.50
2022-11-27T11:21:10.008Z,7.50
2022-11-27T11:22:13.266Z,7.48
2022-11-27T11:23:09.979Z,7.50
2022-11-27T11:24:09.934Z,7.50
2022-11-27T11:25:09.945Z,7.50
2022-11-27T11:26:09.937Z,7.50
2022-11-27T11:27:09.927Z,7.50
2022-11-27T11:28:09.895Z,7.53
2022-11-27T11:29:09.883Z,7.51
2022-11-27T11:30:09.890Z,7.53
2022-11-27T11:31:09.874Z,7.54
2022-11-27T11:32:09.987Z,7.53
2022-11-27T11:33:09.848Z,7.54
2022-11-27T11:34:09.843Z,7.54
2022-11-27T11:35:09.834Z,7.57
2022-11-27T11:36:09.814Z,7.56
2022-11-27T11:37:09.811Z,7.56
2022-11-27T11:38:09.796Z,7.54
2022-11-27T11:39:09.896Z,7.56
2022-11-27T11:40:14.619Z,7.56
2022-11-27T11:41:10.755Z,7.56
2022-11-27T11:42:09.755Z,7.56
2022-11-27T11:43:09.768Z,7.57
2022-11-27T11:44:09.727Z,7.58
2022-11-27T11:45:09.737Z,7.57
2022-11-27T11:46:09.886Z,7.56
2022-11-27T11:47:09.706Z,7.57
2022-11-27T11:48:09.683Z,7.57
2022-11-27T11:49:09.666Z,7.57
2022-11-27T11:50:09.656Z,7.57
2022-11-27T11:51:09.680Z,7.57
2022-11-27T11:52:09.634Z,7.58
2022-11-27T11:53:09.626Z,7.58
2022-11-27T11:54:09.606Z,7.58
2022-11-27T11:55:09.618Z,7.58
2022-11-27T11:56:09.599Z,7.58
2022-11-27T11:57:09.590Z,7.60
2022-11-27T11:58:09.581Z,7.60
2022-11-27T11:59:09.579Z,7.61
2022-11-27T12:00:09.577Z,7.58
2022-11-27T12:01:26.603Z,7.58
2022-11-27T12:02:10.572Z,7.60
2022-11-27T12:03:09.518Z,7.60
2022-11-27T12:04:09.573Z,7.61
2022-11-27T12:05:09.487Z,7.60
2022-11-27T12:06:09.490Z,7.63
2022-11-27T12:07:09.488Z,7.66
2022-11-27T12:08:09.513Z,7.66
2022-11-27T12:09:09.454Z,7.63
2022-11-27T12:10:09.435Z,7.67
2022-11-27T12:11:09.415Z,7.69
2022-11-27T12:12:09.443Z,7.70
2022-11-27T12:13:09.435Z,7.72
2022-11-27T12:14:09.395Z,7.73
2022-11-27T12:15:09.381Z,7.75
2022-11-27T12:16:09.422Z,7.76
2022-11-27T12:17:09.367Z,7.76
2022-11-27T12:18:09.375Z,7.77
2022-11-27T12:19:09.354Z,7.79
2022-11-27T12:20:09.327Z,7.79
2022-11-27T12:21:09.328Z,7.80
2022-11-27T12:22:09.296Z,7.80
2022-11-27T12:23:09.306Z,7.82
2022-11-27T12:24:09.277Z,7.80
2022-11-27T12:25:09.281Z,7.83
2022-11-27T12:26:09.256Z,7.82
2022-11-27T12:27:09.248Z,7.83
2022-11-27T12:28:09.236Z,7.83
2022-11-27T12:29:09.258Z,7.82
2022-11-27T12:30:09.202Z,7.83
2022-11-27T12:31:09.264Z,7.87
2022-11-27T12:32:09.183Z,7.85
2022-11-27T12:33:09.184Z,7.88
2022-11-27T12:34:09.170Z,7.87
2022-11-27T12:35:09.156Z,7.88
2022-11-27T12:36:09.168Z,7.90
2022-11-27T12:37:13.726Z,7.91
2022-11-27T12:38:09.127Z,7.93
2022-11-27T12:39:09.141Z,7.93
2022-11-27T12:40:09.108Z,7.94
2022-11-27T12:41:09.130Z,7.95
2022-11-27T12:42:09.084Z,7.97
2022-11-27T12:43:09.076Z,7.97
2022-11-27T12:44:09.048Z,7.98
2022-11-27T12:45:09.057Z,8.00
2022-11-27T12:46:09.087Z,8.00
2022-11-27T12:47:09.016Z,8.00
2022-11-27T12:48:09.044Z,8.01
2022-11-27T12:49:08.997Z,8.03
2022-11-27T12:50:08.988Z,8.01
2022-11-27T12:51:08.989Z,8.01
2022-11-27T12:52:08.996Z,8.03
2022-11-27T12:53:08.995Z,8.03
2022-11-27T12:54:08.937Z,8.03
2022-11-27T12:55:08.936Z,8.03
2022-11-27T12:56:08.918Z,8.01
2022-11-27T12:57:08.928Z,8.01
2022-11-27T12:58:08.909Z,8.03
2022-11-27T12:59:08.897Z,8.01
2022-11-27T13:00:08.869Z,8.05
2022-11-27T13:01:08.910Z,8.03
2022-11-27T13:02:08.888Z,8.05
2022-11-27T13:03:08.888Z,8.03
2022-11-27T13:04:08.836Z,8.05
2022-11-27T13:05:08.824Z,8.03
2022-11-27T13:06:08.868Z,8.03
2022-11-27T13:07:08.797Z,8.05
2022-11-27T13:08:08.789Z,8.05
2022-11-27T13:09:08.784Z,8.05
2022-11-27T13:10:08.772Z,8.06
2022-11-27T13:11:08.761Z,8.08
2022-11-27T13:12:08.777Z,8.06
2022-11-27T13:13:08.730Z,8.06
2022-11-27T13:14:08.769Z,8.08
2022-11-27T13:15:08.705Z,8.08
2022-11-27T13:16:08.701Z,8.08
2022-11-27T13:17:08.685Z,8.08
2022-11-27T13:18:08.720Z,8.09